Pagina principale
METAR-TAF:

METAR-TAF

Aeroporti :

Montichiari

Brescia, Italia

latitudine: 45-24-02N, longitudine: 010-18-59E, altezza: 104 m

Osservazione

Il bollettino è stato emesso 21 minuti fa, alle 12:50 UTC
Vento 5 kt da est/sud-est, variando fra nord/nord-est e sud
Temperature 27°C
Umidità 34%
Pressione 1026 hPa
Visibilità 10 km o più

METAR: LIPO 191250Z AUTO 11005KT 030V170 9999 NCD 27/10 Q1026

Ora: 15:11 (13:11 UTC)

Previsione

Il bollettino è stato emesso 2 ore e 11 minuti fa, alle 11:00 UTC
Previsione valida dal 19 alle 12 UTC al 20 alle 12 UTC
Vento 5 kt da direzioni variabili
Visibilità 10 km o più
nessuna nube inferiore a 1500 m e nessun cumulonembo
Evoluzione graduale
dal 20 alle 10 UTC al 20 alle 12 UTC
Vento 10 kt da ovest/sud-ovest

TAF: LIPO 191100Z 1912/2012 VRB05KT CAVOK BECMG 2010/2012 25010KT

Osservazioni e previsioni meteorologiche di più di 4000 aeroporti (messaggi METAR e TAF).

Le stazioni disponibili sono rappresentate dai dischi gialli e rossi sulla carta.

Puntare il mouse per vedere il nome della stazione.

Clicca sopra per visualizzare le osservazioni e previsioni meteorologiche.

Per cambiare la mappa : fare clic sui pulsanti verdi con una croce nera per ingrandire, il pulsante verde con un trattino per diminuire, o sulla freccia verde per le mappe adiacenti.


METAR-TAF: